createdAt,value
2019-04-27T00:00:09.573Z,98.91
2019-04-27T00:01:10.602Z,99.11
2019-04-27T00:02:09.518Z,99.32
2019-04-27T00:03:09.524Z,99.63
2019-04-27T00:04:11.759Z,99.52
2019-04-27T00:05:09.479Z,99.42
2019-04-27T00:06:09.472Z,99.52
2019-04-27T00:07:09.469Z,99.52
2019-04-27T00:08:09.471Z,99.42
2019-04-27T00:09:11.622Z,99.52
2019-04-27T00:10:09.463Z,99.32
2019-04-27T00:11:09.424Z,99.67
2019-04-27T00:12:09.409Z,99.57
2019-04-27T00:13:09.419Z,99.63
2019-04-27T00:14:10.328Z,99.99
2019-04-27T00:15:09.372Z,99.98
2019-04-27T00:16:10.061Z,99.99
2019-04-27T00:17:09.356Z,99.99
2019-04-27T00:18:13.421Z,99.99
2019-04-27T00:19:09.340Z,99.99
2019-04-27T00:20:09.318Z,99.99
2019-04-27T00:21:09.327Z,99.99
2019-04-27T00:22:09.312Z,99.99
2019-04-27T00:23:09.328Z,99.99
2019-04-27T00:24:09.273Z,99.99
2019-04-27T00:25:09.271Z,99.99
2019-04-27T00:26:09.262Z,99.99
2019-04-27T00:27:09.249Z,99.99
2019-04-27T00:28:09.249Z,99.99
2019-04-27T00:29:09.373Z,99.93
2019-04-27T00:30:09.221Z,99.99
2019-04-27T00:31:09.206Z,99.99
2019-04-27T00:32:09.190Z,99.99
2019-04-27T00:33:09.193Z,99.99
2019-04-27T00:34:09.175Z,99.89
2019-04-27T00:35:09.158Z,99.63
2019-04-27T00:36:09.151Z,99.32
2019-04-27T00:37:09.140Z,99.48
2019-04-27T00:38:09.146Z,99.63
2019-04-27T00:39:09.131Z,99.63
2019-04-27T00:40:09.103Z,99.63
2019-04-27T00:41:09.089Z,99.93
2019-04-27T00:42:09.082Z,99.73
2019-04-27T00:43:09.079Z,99.52
2019-04-27T00:44:09.078Z,99.83
2019-04-27T00:45:09.053Z,99.21
2019-04-27T00:46:09.044Z,99.83
2019-04-27T00:47:09.035Z,99.21
2019-04-27T00:48:09.013Z,99.32
2019-04-27T00:49:09.025Z,99.16
2019-04-27T00:50:08.987Z,99.11
2019-04-27T00:51:08.971Z,99.26
2019-04-27T00:52:09.009Z,99.47
2019-04-27T00:53:08.951Z,99.47
2019-04-27T00:54:08.961Z,99.42
2019-04-27T00:55:08.940Z,99.11
2019-04-27T00:56:08.921Z,99.37
2019-04-27T00:57:08.915Z,99.26
2019-04-27T00:58:08.902Z,99.37
2019-04-27T00:59:08.908Z,99.57
2019-04-27T01:00:08.885Z,99.21
2019-04-27T01:01:08.873Z,99.11
2019-04-27T01:02:08.850Z,98.80
2019-04-27T01:04:18.052Z,98.91
2019-04-27T01:05:19.026Z,98.60
2019-04-27T01:06:19.017Z,98.29
2019-04-27T01:07:19.003Z,97.99
2019-04-27T01:08:19.008Z,97.99
2019-04-27T01:09:19.001Z,98.39
2019-04-27T01:10:18.992Z,98.03
2019-04-27T01:11:18.972Z,97.82
2019-04-27T01:12:18.955Z,97.78
2019-04-27T01:13:18.948Z,97.78
2019-04-27T01:14:18.954Z,98.24
2019-04-27T01:15:18.927Z,97.99
2019-04-27T01:16:22.016Z,97.82
2019-04-27T01:17:18.996Z,98.24
2019-04-27T01:18:19.480Z,98.03
2019-04-27T01:19:19.105Z,98.24
2019-04-27T01:20:18.857Z,97.82
2019-04-27T01:21:19.414Z,98.07
2019-04-27T01:22:18.949Z,97.92
2019-04-27T01:23:19.315Z,97.97
2019-04-27T01:24:19.056Z,97.87
2019-04-27T01:25:19.012Z,97.77
2019-04-27T01:26:18.802Z,98.24
2019-04-27T01:27:19.026Z,98.24
2019-04-27T01:28:20.672Z,97.87
2019-04-27T01:29:19.284Z,98.13
2019-04-27T01:30:18.922Z,98.13
2019-04-27T01:31:19.292Z,97.82
2019-04-27T01:32:20.729Z,97.92
2019-04-27T01:33:19.819Z,98.03
2019-04-27T01:34:19.249Z,97.82
2019-04-27T01:35:18.798Z,98.03
2019-04-27T01:36:19.088Z,98.24
2019-04-27T01:37:19.581Z,97.82
2019-04-27T01:38:19.212Z,98.03
2019-04-27T01:39:18.982Z,98.03
2019-04-27T01:40:19.358Z,98.24
2019-04-27T01:41:19.128Z,98.03
2019-04-27T01:42:19.282Z,97.82
2019-04-27T01:43:18.751Z,97.82
2019-04-27T01:44:19.428Z,98.33
2019-04-27T01:45:18.756Z,98.13
2019-04-27T01:46:19.569Z,98.39
2019-04-27T01:47:18.784Z,97.72
2019-04-27T01:48:23.612Z,97.67
2019-04-27T01:49:19.391Z,97.72
2019-04-27T01:50:18.922Z,97.47
2019-04-27T01:51:20.805Z,97.82
2019-04-27T01:52:19.382Z,97.57
2019-04-27T01:53:19.048Z,97.47
2019-04-27T01:54:19.363Z,97.37
2019-04-27T01:55:18.904Z,97.47
2019-04-27T01:56:19.481Z,96.95
2019-04-27T01:57:19.414Z,97.06
2019-04-27T01:58:20.221Z,97.37
2019-04-27T01:59:19.945Z,97.47
2019-04-27T02:00:19.332Z,97.47
2019-04-27T02:01:18.764Z,97.47
2019-04-27T02:02:19.096Z,97.16
2019-04-27T02:03:19.790Z,97.37
2019-04-27T02:04:19.429Z,96.80
2019-04-27T02:05:19.028Z,97.52
2019-04-27T02:06:19.049Z,97.52
2019-04-27T02:07:19.169Z,97.47
2019-04-27T02:08:19.607Z,97.10
2019-04-27T02:09:18.772Z,97.20
2019-04-27T02:10:19.256Z,97.16
2019-04-27T02:11:18.618Z,97.27
2019-04-27T02:12:19.177Z,97.47
2019-04-27T02:13:18.869Z,97.27
2019-04-27T02:14:19.582Z,97.06
2019-04-27T02:15:19.179Z,96.75
2019-04-27T02:16:18.862Z,96.95
2019-04-27T02:17:18.809Z,96.85
2019-04-27T02:18:19.457Z,96.65
2019-04-27T02:19:19.338Z,96.55
2019-04-27T02:20:19.741Z,96.95
2019-04-27T02:21:19.287Z,96.75
2019-04-27T02:22:18.677Z,96.75
2019-04-27T02:23:19.243Z,97.16
2019-04-27T02:24:18.636Z,96.65
2019-04-27T02:25:18.957Z,95.93
2019-04-27T02:26:19.236Z,95.83
2019-04-27T02:27:18.696Z,96.14
2019-04-27T02:28:19.489Z,96.03
2019-04-27T02:29:18.882Z,96.03
2019-04-27T02:30:20.472Z,96.44
2019-04-27T02:31:19.325Z,96.44
2019-04-27T02:32:20.147Z,96.23
2019-04-27T02:33:20.220Z,96.14
2019-04-27T02:34:19.983Z,96.23
2019-04-27T02:35:19.312Z,95.72
2019-04-27T02:36:20.229Z,95.31
2019-04-27T02:37:20.011Z,95.31
2019-04-27T02:38:20.108Z,95.56
2019-04-27T02:39:19.758Z,95.52
2019-04-27T02:40:20.234Z,95.52
2019-04-27T02:41:19.857Z,95.56
2019-04-27T02:42:20.030Z,95.36
2019-04-27T02:43:19.421Z,95.46
2019-04-27T02:44:19.993Z,95.87
2019-04-27T02:45:19.585Z,95.77
2019-04-27T02:46:20.031Z,95.97
2019-04-27T02:47:20.486Z,96.12
2019-04-27T02:48:19.946Z,96.53
2019-04-27T02:49:20.025Z,96.02
2019-04-27T02:50:19.316Z,95.92
2019-04-27T02:51:20.193Z,96.12
2019-04-27T02:52:19.865Z,96.43
2019-04-27T02:53:19.640Z,96.22
2019-04-27T02:54:20.233Z,96.06
2019-04-27T02:55:19.799Z,96.27
2019-04-27T02:56:20.007Z,96.37
2019-04-27T02:57:19.860Z,96.58
2019-04-27T02:58:21.242Z,96.47
2019-04-27T02:59:19.857Z,97.03
2019-04-27T03:00:17.756Z,97.40
2019-04-27T03:01:19.867Z,97.61
2019-04-27T03:02:19.659Z,97.19
2019-04-27T03:03:20.105Z,97.19
2019-04-27T03:05:39.841Z,97.40
2019-04-27T03:06:39.924Z,97.34
2019-04-27T03:07:39.906Z,97.34
2019-04-27T03:08:39.425Z,97.65
2019-04-27T03:09:39.532Z,97.96
2019-04-27T03:10:40.133Z,97.75
2019-04-27T03:11:39.566Z,97.80
2019-04-27T03:12:39.893Z,97.90
2019-04-27T03:13:40.489Z,97.60
2019-04-27T03:14:40.453Z,97.69
2019-04-27T03:15:40.360Z,98.52
2019-04-27T03:16:39.461Z,98.16
2019-04-27T03:17:39.613Z,98.52
2019-04-27T03:18:40.345Z,98.21
2019-04-27T03:19:39.782Z,98.32
2019-04-27T03:20:40.254Z,98.00
2019-04-27T03:21:39.594Z,98.11
2019-04-27T03:22:39.853Z,98.32
2019-04-27T03:23:41.028Z,98.15
2019-04-27T03:24:39.448Z,98.25
2019-04-27T03:25:40.142Z,98.25
2019-04-27T03:26:38.985Z,98.25
2019-04-27T03:27:40.553Z,98.42
2019-04-27T03:28:40.131Z,98.00
2019-04-27T03:29:38.959Z,98.36
2019-04-27T03:30:42.482Z,98.05
2019-04-27T03:31:42.571Z,98.77
2019-04-27T03:32:42.541Z,98.97
2019-04-27T03:33:42.630Z,99.14
2019-04-27T03:34:41.792Z,98.57
2019-04-27T03:35:42.691Z,98.97
2019-04-27T03:36:39.563Z,98.83
2019-04-27T03:37:40.382Z,98.97
2019-04-27T03:38:39.728Z,98.97
2019-04-27T03:39:39.751Z,98.88
2019-04-27T03:40:40.288Z,98.77
2019-04-27T03:41:40.986Z,98.88
2019-04-27T03:42:40.298Z,99.39
2019-04-27T03:43:40.192Z,99.18
2019-04-27T03:44:39.808Z,99.08
2019-04-27T03:45:39.965Z,99.04
2019-04-27T03:46:39.729Z,98.57
2019-04-27T03:47:40.699Z,98.83
2019-04-27T03:48:40.715Z,98.93
2019-04-27T03:49:41.524Z,98.77
2019-04-27T03:50:39.854Z,98.52
2019-04-27T03:51:40.190Z,98.93
2019-04-27T03:52:39.710Z,99.14
2019-04-27T03:53:39.628Z,98.72
2019-04-27T03:54:40.095Z,98.42
2019-04-27T03:55:39.766Z,98.32
2019-04-27T03:56:39.573Z,98.52
2019-04-27T03:57:40.271Z,98.36
2019-04-27T03:58:39.578Z,98.42
2019-04-27T03:59:40.522Z,98.46
2019-04-27T04:00:39.835Z,99.29
2019-04-27T04:01:39.607Z,98.67
2019-04-27T04:02:40.549Z,97.80
2019-04-27T04:03:39.313Z,98.36
2019-04-27T04:04:40.567Z,98.32
2019-04-27T04:05:39.801Z,97.90
2019-04-27T04:06:39.911Z,98.46
2019-04-27T04:07:40.246Z,98.25
2019-04-27T04:08:39.680Z,98.25
2019-04-27T04:09:40.175Z,98.36
2019-04-27T04:10:39.243Z,98.52
2019-04-27T04:11:39.559Z,98.15
2019-04-27T04:12:40.020Z,98.00
2019-04-27T04:13:39.633Z,98.05
2019-04-27T04:14:42.425Z,98.67
2019-04-27T04:15:39.835Z,98.36
2019-04-27T04:16:39.492Z,98.21
2019-04-27T04:17:40.327Z,97.69
2019-04-27T04:18:39.657Z,97.90
2019-04-27T04:19:51.181Z,97.90
2019-04-27T04:20:40.369Z,97.33
2019-04-27T04:21:40.005Z,97.49
2019-04-27T04:22:40.126Z,97.69
2019-04-27T04:23:40.145Z,97.43
2019-04-27T04:24:39.724Z,97.43
2019-04-27T04:25:40.672Z,97.64
2019-04-27T04:26:40.214Z,97.90
2019-04-27T04:27:40.126Z,97.69
2019-04-27T04:28:39.638Z,97.43
2019-04-27T04:29:39.450Z,97.60
2019-04-27T04:30:40.267Z,97.60
2019-04-27T04:31:40.547Z,97.28
2019-04-27T04:32:39.480Z,97.49
2019-04-27T04:33:40.152Z,97.14
2019-04-27T04:34:39.885Z,96.93
2019-04-27T04:35:39.766Z,97.34
2019-04-27T04:36:39.401Z,96.25
2019-04-27T04:37:39.419Z,96.56
2019-04-27T04:38:40.099Z,96.00
2019-04-27T04:39:40.296Z,96.42
2019-04-27T04:40:39.970Z,96.31
2019-04-27T04:41:43.181Z,96.52
2019-04-27T04:42:39.222Z,95.90
2019-04-27T04:43:39.715Z,95.53
2019-04-27T04:44:39.954Z,95.49
2019-04-27T04:45:39.342Z,95.64
2019-04-27T04:46:39.906Z,95.59
2019-04-27T04:47:40.509Z,95.33
2019-04-27T04:48:40.229Z,95.08
2019-04-27T04:49:39.761Z,95.23
2019-04-27T04:50:39.774Z,95.49
2019-04-27T04:51:40.006Z,95.39
2019-04-27T04:52:39.673Z,95.08
2019-04-27T04:53:37.683Z,95.45
2019-04-27T04:54:37.657Z,94.46
2019-04-27T04:55:39.185Z,94.11
2019-04-27T04:56:39.289Z,94.01
2019-04-27T04:57:39.822Z,93.55
2019-04-27T04:58:39.244Z,93.24
2019-04-27T04:59:39.020Z,92.73
2019-04-27T05:00:39.882Z,92.32
2019-04-27T05:01:39.899Z,92.21
2019-04-27T05:02:39.526Z,92.32
2019-04-27T05:03:38.865Z,91.49
2019-04-27T05:04:39.060Z,91.45
2019-04-27T05:06:46.738Z,91.55
2019-04-27T05:07:48.623Z,91.25
2019-04-27T05:08:49.282Z,90.98
2019-04-27T05:09:48.564Z,90.53
2019-04-27T05:10:49.465Z,90.88
2019-04-27T05:11:48.664Z,91.04
2019-04-27T05:12:48.577Z,89.87
2019-04-27T05:13:49.306Z,90.14
2019-04-27T05:14:48.935Z,89.62
2019-04-27T05:15:48.701Z,89.42
2019-04-27T05:16:48.908Z,89.21
2019-04-27T05:17:48.385Z,89.01
2019-04-27T05:18:49.412Z,88.35
2019-04-27T05:19:49.112Z,87.22
2019-04-27T05:20:48.644Z,87.79
2019-04-27T05:21:49.138Z,87.49
2019-04-27T05:22:49.066Z,86.57
2019-04-27T05:23:48.687Z,86.57
2019-04-27T05:24:49.247Z,86.11
2019-04-27T05:25:49.074Z,85.71
2019-04-27T05:26:48.738Z,85.91
2019-04-27T05:27:49.268Z,85.46
2019-04-27T05:28:49.163Z,85.05
2019-04-27T05:29:48.851Z,84.95
2019-04-27T05:30:48.956Z,85.11
2019-04-27T05:31:49.005Z,84.60
2019-04-27T05:32:47.462Z,84.91
2019-04-27T05:33:49.065Z,85.22
2019-04-27T05:34:47.428Z,84.36
2019-04-27T05:35:49.130Z,83.44
2019-04-27T05:36:48.797Z,83.74
2019-04-27T05:37:49.082Z,82.82
2019-04-27T05:38:47.400Z,83.29
2019-04-27T05:39:48.706Z,83.09
2019-04-27T05:40:47.350Z,82.89
2019-04-27T05:41:47.425Z,82.98
2019-04-27T05:42:48.827Z,82.57
2019-04-27T05:43:49.032Z,82.07
2019-04-27T05:44:48.861Z,82.95
2019-04-27T05:45:48.821Z,81.72
2019-04-27T05:46:47.287Z,81.82
2019-04-27T05:47:50.794Z,82.43
2019-04-27T05:48:48.791Z,81.38
2019-04-27T05:49:48.553Z,81.38
2019-04-27T05:50:51.440Z,81.27
2019-04-27T05:51:48.481Z,81.07
2019-04-27T05:52:49.501Z,81.07
2019-04-27T05:53:47.210Z,79.91
2019-04-27T05:54:48.857Z,80.21
2019-04-27T05:55:47.188Z,81.03
2019-04-27T05:56:49.103Z,80.99
2019-04-27T05:57:48.874Z,79.87
2019-04-27T05:58:47.158Z,79.70
2019-04-27T05:59:47.164Z,80.11
2019-04-27T06:00:47.140Z,80.11
2019-04-27T06:01:48.999Z,79.91
2019-04-27T06:02:48.697Z,79.19
2019-04-27T06:03:47.100Z,80.18
2019-04-27T06:04:47.111Z,78.85
2019-04-27T06:05:48.848Z,79.36
2019-04-27T06:06:47.074Z,79.97
2019-04-27T06:07:48.791Z,79.02
2019-04-27T06:08:47.046Z,78.61
2019-04-27T06:09:47.047Z,78.81
2019-04-27T06:10:48.828Z,78.06
2019-04-27T06:11:48.695Z,78.00
2019-04-27T06:12:48.513Z,77.59
2019-04-27T06:13:46.997Z,78.67
2019-04-27T06:14:47.012Z,77.45
2019-04-27T06:15:46.971Z,78.37
2019-04-27T06:16:46.950Z,77.65
2019-04-27T06:17:48.451Z,77.72
2019-04-27T06:18:46.935Z,77.41
2019-04-27T06:19:46.959Z,76.90
2019-04-27T06:20:53.461Z,77.51
2019-04-27T06:21:46.907Z,77.41
2019-04-27T06:22:48.776Z,75.95
2019-04-27T06:23:48.713Z,76.05
2019-04-27T06:24:46.909Z,76.15
2019-04-27T06:25:46.873Z,76.32
2019-04-27T06:26:46.849Z,76.73
2019-04-27T06:27:46.831Z,76.12
2019-04-27T06:28:46.824Z,76.22
2019-04-27T06:29:46.845Z,76.62
2019-04-27T06:30:46.831Z,75.92
2019-04-27T06:31:46.800Z,75.51
2019-04-27T06:32:46.803Z,75.98
2019-04-27T06:33:46.780Z,75.27
2019-04-27T06:34:48.819Z,74.55
2019-04-27T06:35:46.768Z,75.60
2019-04-27T06:36:48.585Z,76.01
2019-04-27T06:37:46.737Z,75.57
2019-04-27T06:38:48.485Z,75.67
2019-04-27T06:39:46.724Z,75.27
2019-04-27T06:40:46.705Z,75.37
2019-04-27T06:41:46.680Z,75.33
2019-04-27T06:42:48.505Z,74.72
2019-04-27T06:43:46.666Z,74.45
2019-04-27T06:44:46.669Z,76.01
2019-04-27T06:45:46.658Z,76.59
2019-04-27T06:46:46.633Z,74.45
2019-04-27T06:47:46.618Z,75.57
2019-04-27T06:48:47.480Z,74.45
2019-04-27T06:49:46.606Z,74.86
2019-04-27T06:50:46.599Z,75.47
2019-04-27T06:51:46.580Z,75.16
2019-04-27T06:52:46.570Z,75.33
2019-04-27T06:53:46.564Z,75.20
2019-04-27T06:54:46.554Z,74.32
2019-04-27T06:55:46.560Z,74.48
2019-04-27T06:56:46.525Z,74.35
2019-04-27T06:57:46.514Z,72.86
2019-04-27T06:58:46.498Z,74.28
2019-04-27T06:59:46.487Z,73.67
2019-04-27T07:00:46.494Z,73.67
2019-04-27T07:01:46.469Z,73.84
2019-04-27T07:02:46.451Z,74.48
2019-04-27T07:03:46.462Z,74.28
2019-04-27T07:04:46.436Z,74.79
2019-04-27T07:05:46.447Z,74.93
2019-04-27T07:07:58.936Z,73.60
2019-04-27T07:08:59.611Z,74.28
2019-04-27T07:09:59.068Z,74.35
2019-04-27T07:10:58.888Z,74.45
2019-04-27T07:11:59.244Z,73.43
2019-04-27T07:12:59.668Z,73.63
2019-04-27T07:13:59.397Z,73.33
2019-04-27T07:14:59.278Z,74.55
2019-04-27T07:15:59.534Z,74.15
2019-04-27T07:16:59.082Z,73.43
2019-04-27T07:17:58.640Z,73.50
2019-04-27T07:18:59.344Z,72.75
2019-04-27T07:19:59.447Z,72.75
2019-04-27T07:20:58.684Z,72.82
2019-04-27T07:21:59.409Z,71.60
2019-04-27T07:22:59.503Z,70.89
2019-04-27T07:23:59.347Z,71.50
2019-04-27T07:24:59.072Z,72.01
2019-04-27T07:25:59.749Z,70.82
2019-04-27T07:26:59.585Z,72.75
2019-04-27T07:27:59.216Z,71.50
2019-04-27T07:28:59.518Z,70.89
2019-04-27T07:30:00.770Z,71.30
2019-04-27T07:30:58.674Z,71.13
2019-04-27T07:31:59.506Z,70.45
2019-04-27T07:33:00.130Z,70.45
2019-04-27T07:33:59.409Z,69.54
2019-04-27T07:34:58.621Z,69.03
2019-04-27T07:35:59.091Z,69.43
2019-04-27T07:36:59.571Z,70.32
2019-04-27T07:37:58.810Z,69.43
2019-04-27T07:38:59.625Z,69.51
2019-04-27T07:39:59.125Z,68.70
2019-04-27T07:40:58.689Z,69.51
2019-04-27T07:41:58.571Z,69.20
2019-04-27T07:42:59.294Z,68.93
2019-04-27T07:43:58.618Z,69.03
2019-04-27T07:44:59.419Z,67.00
2019-04-27T07:45:59.076Z,68.87
2019-04-27T07:46:59.438Z,68.83
2019-04-27T07:47:59.154Z,68.66
2019-04-27T07:48:59.425Z,67.61
2019-04-27T07:49:59.271Z,66.60
2019-04-27T07:50:59.072Z,67.51
2019-04-27T07:51:58.971Z,66.97
2019-04-27T07:52:58.655Z,65.66
2019-04-27T07:53:58.899Z,65.90
2019-04-27T07:54:58.758Z,65.19
2019-04-27T07:55:59.146Z,65.66
2019-04-27T07:56:58.774Z,66.88
2019-04-27T07:57:59.382Z,66.54
2019-04-27T07:58:59.404Z,65.96
2019-04-27T07:59:59.472Z,65.70
2019-04-27T08:00:59.026Z,65.50
2019-04-27T08:01:59.111Z,65.29
2019-04-27T08:02:58.614Z,65.90
2019-04-27T08:03:59.027Z,66.24
2019-04-27T08:04:57.424Z,64.90
2019-04-27T08:05:58.818Z,65.20
2019-04-27T08:06:57.421Z,64.67
2019-04-27T08:07:57.399Z,64.87
2019-04-27T08:08:59.189Z,63.85
2019-04-27T08:10:01.105Z,63.35
2019-04-27T08:10:57.356Z,64.59
2019-04-27T08:11:58.672Z,63.58
2019-04-27T08:12:57.354Z,64.87
2019-04-27T08:13:58.824Z,62.77
2019-04-27T08:14:57.323Z,64.15
2019-04-27T08:15:58.967Z,64.32
2019-04-27T08:16:58.649Z,64.79
2019-04-27T08:17:59.042Z,65.56
2019-04-27T08:18:57.270Z,65.69
2019-04-27T08:19:57.275Z,65.76
2019-04-27T08:20:58.944Z,65.76
2019-04-27T08:21:57.238Z,65.45
2019-04-27T08:22:57.235Z,65.62
2019-04-27T08:23:58.626Z,64.95
2019-04-27T08:24:57.196Z,65.45
2019-04-27T08:25:58.787Z,66.30
2019-04-27T08:26:57.184Z,65.86
2019-04-27T08:27:57.201Z,65.45
2019-04-27T08:28:58.627Z,66.27
2019-04-27T08:29:58.739Z,65.42
2019-04-27T08:30:58.563Z,65.66
2019-04-27T08:31:58.518Z,65.96
2019-04-27T08:32:57.128Z,65.66
2019-04-27T08:33:58.309Z,66.10
2019-04-27T08:34:59.489Z,65.67
2019-04-27T08:35:58.947Z,64.83
2019-04-27T08:36:58.460Z,63.38
2019-04-27T08:37:57.071Z,61.96
2019-04-27T08:38:58.746Z,63.61
2019-04-27T08:39:57.046Z,64.09
2019-04-27T08:40:57.027Z,63.18
2019-04-27T08:41:57.021Z,63.04
2019-04-27T08:42:57.027Z,63.98
2019-04-27T08:43:58.663Z,64.95
2019-04-27T08:44:56.982Z,65.36
2019-04-27T08:45:58.795Z,66.19
2019-04-27T08:46:56.973Z,66.47
2019-04-27T08:47:56.956Z,65.86
2019-04-27T08:48:58.576Z,65.79
2019-04-27T08:49:56.930Z,66.70
2019-04-27T08:50:56.912Z,66.30
2019-04-27T08:52:01.207Z,68.19
2019-04-27T08:52:56.916Z,67.79
2019-04-27T08:53:56.893Z,67.51
2019-04-27T08:54:56.869Z,68.49
2019-04-27T08:55:56.854Z,69.51
2019-04-27T08:56:56.849Z,68.90
2019-04-27T08:57:58.567Z,69.07
2019-04-27T08:58:56.847Z,69.34
2019-04-27T08:59:56.823Z,67.68
2019-04-27T09:00:56.816Z,66.91
2019-04-27T09:01:58.647Z,67.95
2019-04-27T09:02:56.781Z,68.29
2019-04-27T09:03:56.803Z,67.75
2019-04-27T09:04:56.768Z,67.44
2019-04-27T09:05:56.751Z,70.42
2019-04-27T09:06:56.765Z,70.48
2019-04-27T09:09:05.955Z,68.93
2019-04-27T09:10:08.575Z,69.57
2019-04-27T09:11:08.789Z,70.52
2019-04-27T09:12:06.911Z,72.69
2019-04-27T09:13:08.739Z,71.30
2019-04-27T09:14:06.903Z,71.60
2019-04-27T09:15:06.878Z,72.34
2019-04-27T09:16:06.863Z,73.53
2019-04-27T09:17:06.853Z,73.13
2019-04-27T09:18:06.840Z,74.28
2019-04-27T09:19:08.703Z,75.90
2019-04-27T09:20:06.834Z,76.31
2019-04-27T09:21:06.813Z,75.63
2019-04-27T09:22:15.245Z,75.53
2019-04-27T09:23:06.790Z,75.16
2019-04-27T09:24:06.764Z,76.07
2019-04-27T09:25:06.783Z,77.56
2019-04-27T09:26:06.751Z,76.68
2019-04-27T09:27:06.731Z,78.55
2019-04-27T09:28:08.642Z,78.55
2019-04-27T09:29:08.315Z,79.06
2019-04-27T09:30:08.410Z,79.68
2019-04-27T09:31:09.243Z,80.99
2019-04-27T09:32:08.754Z,80.79
2019-04-27T09:33:06.678Z,81.81
2019-04-27T09:34:08.108Z,80.49
2019-04-27T09:35:07.706Z,81.46
2019-04-27T09:36:06.638Z,80.85
2019-04-27T09:37:06.631Z,81.40
2019-04-27T09:38:07.141Z,82.28
2019-04-27T09:39:08.565Z,80.85
2019-04-27T09:40:08.153Z,81.37
2019-04-27T09:41:07.151Z,81.37
2019-04-27T09:42:06.696Z,82.68
2019-04-27T09:43:07.542Z,82.01
2019-04-27T09:44:06.554Z,81.26
2019-04-27T09:45:06.689Z,81.71
2019-04-27T09:46:06.540Z,81.51
2019-04-27T09:47:06.521Z,83.60
2019-04-27T09:48:06.758Z,81.46
2019-04-27T09:49:07.432Z,81.46
2019-04-27T09:50:06.496Z,82.48
2019-04-27T09:51:06.583Z,81.57
2019-04-27T09:52:06.463Z,82.52
2019-04-27T09:53:06.524Z,81.65
2019-04-27T09:54:06.446Z,82.32
2019-04-27T09:55:06.672Z,82.66
2019-04-27T09:56:06.418Z,84.97
2019-04-27T09:57:07.015Z,83.27
2019-04-27T09:58:06.383Z,83.89
2019-04-27T09:59:06.465Z,84.70
2019-04-27T10:00:06.465Z,84.05
2019-04-27T10:01:06.714Z,85.88
2019-04-27T10:02:08.436Z,85.47
2019-04-27T10:03:06.730Z,84.45
2019-04-27T10:04:06.330Z,84.97
2019-04-27T10:05:06.343Z,84.15
2019-04-27T10:06:06.307Z,84.09
2019-04-27T10:07:06.327Z,85.75
2019-04-27T10:08:06.403Z,85.96
2019-04-27T10:09:06.655Z,86.37
2019-04-27T10:10:06.538Z,86.37
2019-04-27T10:11:06.283Z,86.94
2019-04-27T10:12:07.503Z,85.96
2019-04-27T10:13:07.039Z,86.33
2019-04-27T10:14:06.210Z,85.05
2019-04-27T10:15:06.234Z,85.19
2019-04-27T10:16:06.202Z,87.08
2019-04-27T10:17:06.184Z,85.96
2019-04-27T10:18:06.252Z,86.10
2019-04-27T10:19:06.156Z,86.82
2019-04-27T10:20:06.159Z,86.04
2019-04-27T10:21:06.397Z,88.24
2019-04-27T10:22:06.186Z,87.90
2019-04-27T10:23:06.385Z,86.51
2019-04-27T10:24:06.622Z,88.55
2019-04-27T10:25:06.085Z,87.47
2019-04-27T10:26:06.102Z,89.26
2019-04-27T10:27:07.984Z,89.32
2019-04-27T10:28:06.752Z,89.22
2019-04-27T10:29:06.236Z,88.81
2019-04-27T10:30:06.040Z,86.10
2019-04-27T10:31:07.037Z,87.63
2019-04-27T10:32:06.411Z,88.34
2019-04-27T10:33:08.122Z,87.23
2019-04-27T10:34:06.100Z,87.18
2019-04-27T10:35:07.674Z,85.80
2019-04-27T10:36:06.596Z,88.28
2019-04-27T10:37:06.190Z,89.06
2019-04-27T10:38:05.936Z,88.04
2019-04-27T10:39:05.932Z,86.45
2019-04-27T10:40:06.269Z,87.57
2019-04-27T10:41:07.640Z,87.67
2019-04-27T10:42:06.800Z,88.96
2019-04-27T10:43:06.377Z,88.04
2019-04-27T10:44:07.529Z,86.21
2019-04-27T10:45:06.432Z,85.63
2019-04-27T10:46:06.654Z,86.71
2019-04-27T10:47:06.111Z,86.41
2019-04-27T10:48:05.837Z,87.53
2019-04-27T10:49:05.963Z,88.04
2019-04-27T10:50:05.937Z,88.75
2019-04-27T10:51:07.382Z,88.34
2019-04-27T10:52:06.021Z,88.31
2019-04-27T10:53:06.910Z,88.06
2019-04-27T10:54:05.771Z,88.16
2019-04-27T10:55:06.067Z,87.45
2019-04-27T10:56:05.747Z,87.96
2019-04-27T10:57:06.193Z,87.45
2019-04-27T10:58:05.714Z,87.04
2019-04-27T10:59:06.515Z,87.65
2019-04-27T11:00:06.832Z,87.69
2019-04-27T11:01:05.708Z,88.36
2019-04-27T11:02:05.690Z,88.12
2019-04-27T11:03:06.636Z,88.22
2019-04-27T11:04:05.938Z,87.41
2019-04-27T11:05:06.792Z,87.04
2019-04-27T11:06:05.971Z,87.71
2019-04-27T11:07:07.177Z,87.04
2019-04-27T11:08:06.632Z,87.87
2019-04-27T11:10:26.086Z,86.22
2019-04-27T11:11:27.788Z,85.55
2019-04-27T11:12:26.721Z,86.77
2019-04-27T11:13:26.699Z,87.65
2019-04-27T11:14:26.679Z,87.24
2019-04-27T11:15:26.695Z,86.43
2019-04-27T11:16:26.687Z,87.14
2019-04-27T11:17:26.817Z,87.30
2019-04-27T11:18:26.636Z,87.98
2019-04-27T11:19:26.853Z,86.35
2019-04-27T11:20:27.794Z,88.08
2019-04-27T11:21:26.615Z,85.03
2019-04-27T11:22:26.612Z,86.90
2019-04-27T11:23:26.586Z,87.16
2019-04-27T11:24:26.572Z,87.57
2019-04-27T11:25:26.568Z,87.06
2019-04-27T11:26:26.567Z,85.13
2019-04-27T11:27:26.563Z,86.59
2019-04-27T11:28:26.531Z,86.65
2019-04-27T11:29:27.672Z,86.25
2019-04-27T11:30:26.504Z,86.65
2019-04-27T11:31:26.493Z,88.08
2019-04-27T11:32:26.512Z,85.94
2019-04-27T11:33:26.492Z,86.59
2019-04-27T11:34:26.520Z,85.27
2019-04-27T11:35:26.465Z,86.69
2019-04-27T11:36:26.451Z,87.20
2019-04-27T11:37:26.437Z,85.88
2019-04-27T11:38:26.685Z,86.90
2019-04-27T11:39:26.403Z,84.84
2019-04-27T11:40:26.407Z,86.16
2019-04-27T11:41:26.431Z,85.86
2019-04-27T11:42:26.386Z,85.05
2019-04-27T11:43:26.365Z,86.06
2019-04-27T11:44:26.347Z,86.68
2019-04-27T11:45:28.381Z,87.96
2019-04-27T11:46:26.756Z,87.14
2019-04-27T11:47:27.465Z,85.72
2019-04-27T11:48:26.377Z,85.61
2019-04-27T11:49:26.304Z,85.72
2019-04-27T11:50:26.285Z,87.14
2019-04-27T11:51:26.686Z,85.05
2019-04-27T11:52:26.269Z,86.43
2019-04-27T11:53:26.382Z,85.00
2019-04-27T11:54:27.580Z,86.74
2019-04-27T11:55:27.374Z,86.80
2019-04-27T11:56:27.442Z,86.29
2019-04-27T11:57:26.209Z,86.49
2019-04-27T11:58:26.579Z,87.47
2019-04-27T11:59:27.119Z,86.55
2019-04-27T12:00:27.674Z,85.94
2019-04-27T12:01:27.057Z,85.27
2019-04-27T12:02:26.147Z,85.88
2019-04-27T12:03:26.160Z,85.51
2019-04-27T12:04:26.393Z,87.81
2019-04-27T12:05:26.198Z,86.86
2019-04-27T12:06:26.112Z,84.76
2019-04-27T12:07:26.090Z,85.27
2019-04-27T12:08:26.500Z,84.82
2019-04-27T12:09:26.090Z,86.15
2019-04-27T12:10:26.383Z,86.55
2019-04-27T12:11:26.182Z,85.06
2019-04-27T12:12:26.253Z,85.84
2019-04-27T12:13:26.048Z,84.62
2019-04-27T12:14:26.019Z,84.05
2019-04-27T12:15:26.394Z,85.72
2019-04-27T12:16:26.294Z,87.35
2019-04-27T12:17:29.039Z,86.02
2019-04-27T12:18:25.999Z,86.22
2019-04-27T12:19:26.806Z,85.72
2019-04-27T12:20:26.072Z,86.94
2019-04-27T12:21:25.942Z,87.92
2019-04-27T12:22:25.928Z,86.33
2019-04-27T12:23:33.692Z,87.55
2019-04-27T12:24:26.727Z,85.66
2019-04-27T12:25:25.889Z,87.45
2019-04-27T12:26:25.989Z,87.29
2019-04-27T12:27:25.872Z,86.98
2019-04-27T12:28:27.209Z,88.40
2019-04-27T12:29:25.856Z,87.32
2019-04-27T12:30:26.197Z,87.73
2019-04-27T12:31:25.873Z,88.92
2019-04-27T12:32:25.818Z,89.01
2019-04-27T12:33:27.627Z,89.32
2019-04-27T12:34:27.883Z,89.73
2019-04-27T12:35:25.839Z,90.24
2019-04-27T12:36:25.912Z,89.63
2019-04-27T12:37:26.788Z,89.87
2019-04-27T12:38:26.337Z,89.57
2019-04-27T12:39:26.789Z,87.96
2019-04-27T12:40:26.857Z,89.00
2019-04-27T12:41:25.716Z,89.74
2019-04-27T12:42:26.015Z,90.84
2019-04-27T12:43:25.694Z,93.20
2019-04-27T12:44:26.154Z,92.31
2019-04-27T12:45:26.652Z,93.99
2019-04-27T12:46:25.672Z,95.47
2019-04-27T12:47:26.300Z,95.06
2019-04-27T12:48:25.645Z,95.62
2019-04-27T12:49:26.154Z,96.23
2019-04-27T12:50:26.134Z,95.72
2019-04-27T12:51:25.601Z,95.93
2019-04-27T12:52:25.966Z,95.83
2019-04-27T12:53:25.578Z,95.83
2019-04-27T12:54:26.186Z,95.93
2019-04-27T12:55:25.767Z,96.95
2019-04-27T12:56:25.546Z,95.31
2019-04-27T12:57:26.327Z,95.72
2019-04-27T12:58:26.541Z,94.85
2019-04-27T12:59:26.168Z,95.47